createdAt,value
2023-05-21T00:00:38.031Z,102154.56
2023-05-21T00:03:06.297Z,102156.66
2023-05-21T00:05:35.104Z,102155.78
2023-05-21T00:08:03.648Z,102151.53
2023-05-21T00:10:32.157Z,102152.38
2023-05-21T00:13:00.505Z,102147.78
2023-05-21T00:15:30.081Z,102150.25
2023-05-21T00:17:58.562Z,102150.63
2023-05-21T00:20:27.021Z,102151.41
2023-05-21T00:22:55.140Z,102154.13
2023-05-21T00:25:23.532Z,102157.41
2023-05-21T00:27:52.118Z,102155.91
2023-05-21T00:30:20.486Z,102156.13
2023-05-21T00:32:50.319Z,102161.31
2023-05-21T00:35:19.683Z,102162.53
2023-05-21T00:37:47.881Z,102160.59
2023-05-21T00:40:16.770Z,102154.97
2023-05-21T00:42:48.048Z,102154.91
2023-05-21T00:45:16.295Z,102154.19
2023-05-21T00:47:46.023Z,102153.53
2023-05-21T00:50:16.531Z,102158.41
2023-05-21T00:52:45.947Z,102147.25
2023-05-21T00:55:14.500Z,102148.66
2023-05-21T00:57:43.176Z,102141.16
2023-05-21T01:00:12.925Z,102142.97
2023-05-21T01:02:41.534Z,102147.19
2023-05-21T01:05:10.231Z,102140.25
2023-05-21T01:07:42.613Z,102147.13
2023-05-21T01:10:12.739Z,102150.50
2023-05-21T01:12:44.152Z,102151.91
2023-05-21T01:15:13.722Z,102158.38
2023-05-21T01:17:42.940Z,102151.63
2023-05-21T01:20:11.988Z,102149.88
2023-05-21T01:22:44.880Z,102137.78
2023-05-21T01:25:15.187Z,102134.59
2023-05-21T01:27:43.379Z,102132.72
2023-05-21T01:30:12.842Z,102128.50
2023-05-21T01:32:49.364Z,102133.50
2023-05-21T01:35:23.635Z,102143.81
2023-05-21T01:37:56.344Z,102140.25
2023-05-21T01:40:31.080Z,102141.88
2023-05-21T01:43:00.062Z,102151.69
2023-05-21T01:45:32.743Z,102149.28
2023-05-21T01:48:01.804Z,102146.38
2023-05-21T01:50:32.132Z,102150.78
2023-05-21T01:53:01.152Z,102145.25
2023-05-21T01:55:31.467Z,102145.47
2023-05-21T01:58:02.561Z,102153.13
2023-05-21T02:00:32.786Z,102154.16
2023-05-21T02:03:03.744Z,102144.34
2023-05-21T02:05:31.756Z,102142.75
2023-05-21T02:08:01.092Z,102152.50
2023-05-21T02:10:31.236Z,102149.94
2023-05-21T02:13:02.526Z,102149.88
2023-05-21T02:15:31.212Z,102146.56
2023-05-21T02:17:59.792Z,102147.63
2023-05-21T02:20:28.002Z,102148.16
2023-05-21T02:22:56.300Z,102154.25
2023-05-21T02:25:24.583Z,102148.16
2023-05-21T02:27:56.806Z,102153.16
2023-05-21T02:30:25.064Z,102142.66
2023-05-21T02:32:54.942Z,102131.69
2023-05-21T02:35:23.294Z,102133.56
2023-05-21T02:37:51.786Z,102135.44
2023-05-21T02:40:20.199Z,102128.06
2023-05-21T02:42:48.497Z,102130.19
2023-05-21T02:45:21.749Z,102122.41
2023-05-21T02:47:50.067Z,102134.31
2023-05-21T02:50:22.509Z,102129.06
2023-05-21T02:53:00.484Z,102134.84
2023-05-21T02:55:29.596Z,102141.22
2023-05-21T02:57:57.824Z,102141.59
2023-05-21T03:00:27.455Z,102140.84
2023-05-21T03:02:55.749Z,102128.69
2023-05-21T03:05:24.438Z,102116.63
2023-05-21T03:07:53.418Z,102119.94
2023-05-21T03:10:21.988Z,102130.91
2023-05-21T03:12:50.474Z,102124.16
2023-05-21T03:15:24.301Z,102127.53
2023-05-21T03:17:55.573Z,102131.09
2023-05-21T03:20:24.926Z,102120.22
2023-05-21T03:22:55.127Z,102124.38
2023-05-21T03:25:25.211Z,102128.75
2023-05-21T03:27:54.667Z,102129.97
2023-05-21T03:30:46.754Z,102131.47
2023-05-21T03:33:39.451Z,102129.00
2023-05-21T03:36:19.857Z,102128.00
2023-05-21T03:38:48.539Z,102132.22
2023-05-21T03:41:16.913Z,102131.84
2023-05-21T03:43:48.940Z,102137.66
2023-05-21T03:46:17.523Z,102138.66
2023-05-21T03:49:01.210Z,102143.41
2023-05-21T03:51:32.479Z,102133.81
2023-05-21T03:54:01.514Z,102128.16
2023-05-21T03:56:30.024Z,102127.50
2023-05-21T03:58:58.302Z,102132.28
2023-05-21T04:01:28.537Z,102132.94
2023-05-21T04:03:58.484Z,102129.94
2023-05-21T04:06:30.279Z,102137.72
2023-05-21T04:08:58.531Z,102131.34
2023-05-21T04:11:26.897Z,102133.69
2023-05-21T04:13:55.074Z,102128.25
2023-05-21T04:16:24.719Z,102126.94
2023-05-21T04:18:55.563Z,102132.63
2023-05-21T04:21:25.648Z,102135.56
2023-05-21T04:23:57.605Z,102131.41
2023-05-21T04:26:38.307Z,102136.94
2023-05-21T04:29:06.921Z,102144.91
2023-05-21T04:31:35.177Z,102150.50
2023-05-21T04:34:05.158Z,102143.41
2023-05-21T04:36:33.918Z,102150.72
2023-05-21T04:39:05.763Z,102149.19
2023-05-21T04:41:34.070Z,102138.53
2023-05-21T04:44:02.355Z,102139.84
2023-05-21T04:46:35.007Z,102135.72
2023-05-21T04:49:04.132Z,102142.84
2023-05-21T04:51:32.613Z,102138.44
2023-05-21T04:54:01.002Z,102140.44
2023-05-21T04:56:32.008Z,102143.78
2023-05-21T04:59:00.544Z,102137.91
2023-05-21T05:01:29.637Z,102136.78
2023-05-21T05:03:58.273Z,102140.06
2023-05-21T05:06:26.884Z,102142.69
2023-05-21T05:08:56.390Z,102134.19
2023-05-21T05:11:25.282Z,102144.84
2023-05-21T05:13:55.502Z,102143.47
2023-05-21T05:16:25.761Z,102147.03
2023-05-21T05:18:57.240Z,102142.94
2023-05-21T05:21:25.542Z,102148.00
2023-05-21T05:23:53.933Z,102139.00
2023-05-21T05:26:26.818Z,102143.69
2023-05-21T05:28:56.658Z,102142.75
2023-05-21T05:31:25.330Z,102132.91
2023-05-21T05:33:54.689Z,102136.75
2023-05-21T05:36:25.227Z,102126.75
2023-05-21T05:38:54.017Z,102125.69
2023-05-21T05:41:22.972Z,102130.19
2023-05-21T05:43:51.701Z,102126.25
2023-05-21T05:46:23.757Z,102131.59
2023-05-21T05:48:52.964Z,102124.94
2023-05-21T05:51:21.161Z,102126.44
2023-05-21T05:53:49.381Z,102125.69
2023-05-21T05:56:17.960Z,102131.19
2023-05-21T05:58:46.250Z,102128.28
2023-05-21T06:01:16.653Z,102131.28
2023-05-21T06:03:47.543Z,102112.91
2023-05-21T06:06:18.125Z,102117.56
2023-05-21T06:08:46.626Z,102117.19
2023-05-21T06:11:17.222Z,102110.13
2023-05-21T06:13:46.057Z,102124.44
2023-05-21T06:16:16.375Z,102113.19
2023-05-21T06:18:46.104Z,102114.50
2023-05-21T06:21:14.548Z,102105.38
2023-05-21T06:23:42.941Z,102114.53
2023-05-21T06:26:11.610Z,102106.22
2023-05-21T06:28:39.894Z,102113.84
2023-05-21T06:31:11.964Z,102117.13
2023-05-21T06:33:40.902Z,102113.44
2023-05-21T06:36:10.969Z,102118.22
2023-05-21T06:38:39.532Z,102116.88
2023-05-21T06:41:07.920Z,102115.50
2023-05-21T06:43:48.085Z,102113.56
2023-05-21T06:46:45.822Z,102115.25
2023-05-21T06:49:15.428Z,102113.03
2023-05-21T06:51:46.268Z,102114.97
2023-05-21T06:54:15.052Z,102118.19
2023-05-21T06:56:43.871Z,102112.81
2023-05-21T06:59:12.350Z,102114.13
2023-05-21T07:01:42.610Z,102100.72
2023-05-21T07:04:11.256Z,102110.66
2023-05-21T07:06:40.339Z,102105.84
2023-05-21T07:09:10.395Z,102115.72
2023-05-21T07:11:39.286Z,102109.69
2023-05-21T07:14:10.063Z,102106.38
2023-05-21T07:16:39.351Z,102104.94
2023-05-21T07:19:07.874Z,102092.19
2023-05-21T07:21:36.391Z,102099.34
2023-05-21T07:24:07.249Z,102106.56
2023-05-21T07:26:40.564Z,102102.19
2023-05-21T07:29:09.203Z,102100.31
2023-05-21T07:31:37.700Z,102099.44
2023-05-21T07:34:07.288Z,102100.66
2023-05-21T07:36:35.590Z,102095.81
2023-05-21T07:39:05.039Z,102098.66
2023-05-21T07:41:33.848Z,102099.09
2023-05-21T07:44:06.625Z,102102.28
2023-05-21T07:46:38.657Z,102092.41
2023-05-21T07:49:07.144Z,102094.59
2023-05-21T07:51:35.636Z,102099.88
2023-05-21T07:54:04.335Z,102097.81
2023-05-21T07:56:36.389Z,102096.38
2023-05-21T07:59:07.946Z,102086.41
2023-05-21T08:01:38.010Z,102092.13
2023-05-21T08:04:07.025Z,102095.66
2023-05-21T08:06:37.651Z,102082.13
2023-05-21T08:09:06.901Z,102076.53
2023-05-21T08:11:35.311Z,102074.53
2023-05-21T08:14:04.578Z,102080.59
2023-05-21T08:16:34.175Z,102074.84
2023-05-21T08:19:02.511Z,102077.31
2023-05-21T08:21:32.717Z,102085.56
2023-05-21T08:24:03.458Z,102084.41
2023-05-21T08:26:31.830Z,102080.50
2023-05-21T08:29:00.506Z,102081.59
2023-05-21T08:31:30.719Z,102077.66
2023-05-21T08:34:00.761Z,102080.97
2023-05-21T08:36:43.364Z,102082.88
2023-05-21T08:39:27.647Z,102077.22
2023-05-21T08:42:03.052Z,102078.56
2023-05-21T08:44:37.628Z,102080.41
2023-05-21T08:47:08.712Z,102075.41
2023-05-21T08:49:38.420Z,102068.66
2023-05-21T08:52:07.768Z,102068.63
2023-05-21T08:54:39.888Z,102074.59
2023-05-21T08:57:09.321Z,102059.88
2023-05-21T08:59:40.142Z,102073.81
2023-05-21T09:02:14.166Z,102070.50
2023-05-21T09:04:49.487Z,102069.41
2023-05-21T09:07:19.081Z,102059.97
2023-05-21T09:10:10.101Z,102062.72
2023-05-21T09:12:39.314Z,102063.06
2023-05-21T09:15:09.032Z,102061.44
2023-05-21T09:17:39.226Z,102057.75
2023-05-21T09:20:28.390Z,102065.53
2023-05-21T09:23:05.406Z,102067.69
2023-05-21T09:25:34.532Z,102078.94
2023-05-21T09:28:13.544Z,102074.25
2023-05-21T09:30:46.813Z,102068.81
2023-05-21T09:33:26.150Z,102062.22
2023-05-21T09:35:56.601Z,102058.84
2023-05-21T09:38:27.030Z,102061.00
2023-05-21T09:40:56.890Z,102065.03
2023-05-21T09:43:26.704Z,102063.38
2023-05-21T09:45:58.986Z,102081.66
2023-05-21T09:48:36.980Z,102066.91
2023-05-21T09:51:13.042Z,102075.56
2023-05-21T09:53:46.133Z,102070.69
2023-05-21T09:56:15.251Z,102062.63
2023-05-21T09:58:44.346Z,102058.69
2023-05-21T10:01:13.120Z,102060.69
2023-05-21T10:03:42.454Z,102062.94
2023-05-21T10:06:13.019Z,102056.59
2023-05-21T10:08:44.066Z,102053.84
2023-05-21T10:11:13.096Z,102047.25
2023-05-21T10:13:46.593Z,102044.38
2023-05-21T10:16:15.877Z,102040.59
2023-05-21T10:18:46.465Z,102043.47
2023-05-21T10:21:16.936Z,102051.16
2023-05-21T10:23:46.953Z,102049.75
2023-05-21T10:26:16.379Z,102045.72
2023-05-21T10:28:45.454Z,102049.19
2023-05-21T10:31:14.409Z,102039.63
2023-05-21T10:33:43.440Z,102047.94
2023-05-21T10:36:12.957Z,102032.13
2023-05-21T10:38:46.955Z,102044.63
2023-05-21T10:41:18.310Z,102046.34
2023-05-21T10:43:53.043Z,102043.22
2023-05-21T10:46:46.502Z,102047.66
2023-05-21T10:49:31.313Z,102037.25
2023-05-21T10:52:09.471Z,102034.72
2023-05-21T10:55:03.642Z,102040.22
2023-05-21T10:58:01.830Z,102038.34
2023-05-21T11:00:33.063Z,102032.41
2023-05-21T11:03:03.889Z,102020.25
2023-05-21T11:05:42.595Z,102019.03
2023-05-21T11:08:23.817Z,102020.84
2023-05-21T11:10:58.544Z,102020.25
2023-05-21T11:13:27.521Z,102018.97
2023-05-21T11:19:05.716Z,102011.44
2023-05-21T11:21:36.410Z,102017.00
2023-05-21T11:24:08.474Z,102023.28
2023-05-21T11:27:07.261Z,102014.44
2023-05-21T11:29:46.382Z,102012.38
2023-05-21T11:32:20.805Z,102000.25
2023-05-21T11:34:49.532Z,101992.81
2023-05-21T11:37:30.436Z,101991.53
2023-05-21T11:40:17.146Z,101998.91
2023-05-21T11:42:52.048Z,101985.84
2023-05-21T11:45:21.783Z,101984.97
2023-05-21T11:47:54.169Z,101976.63
2023-05-21T11:50:23.016Z,101974.81
2023-05-21T11:52:51.685Z,101980.75
2023-05-21T11:55:23.983Z,101968.28
2023-05-21T11:57:57.806Z,101978.75
2023-05-21T12:00:25.983Z,101960.22
2023-05-21T12:02:56.245Z,101958.88
2023-05-21T12:05:27.197Z,101952.19
2023-05-21T12:07:56.705Z,101952.91
2023-05-21T12:10:25.617Z,101949.72
2023-05-21T12:12:57.550Z,101954.94
2023-05-21T12:15:28.236Z,101946.22
2023-05-21T12:17:59.892Z,101956.00
2023-05-21T12:20:31.596Z,101950.22
2023-05-21T12:23:00.763Z,101944.91
2023-05-21T12:25:30.251Z,101949.25
2023-05-21T12:28:01.563Z,101966.06
2023-05-21T12:30:30.370Z,101959.19
2023-05-21T12:33:02.441Z,101954.28
2023-05-21T12:35:32.809Z,101955.75
2023-05-21T12:38:05.061Z,101957.31
2023-05-21T12:40:39.287Z,101956.00
2023-05-21T12:43:10.562Z,101954.88
2023-05-21T12:45:40.679Z,101951.69
2023-05-21T12:48:10.343Z,101956.97
2023-05-21T12:50:41.863Z,101946.53
2023-05-21T12:53:37.454Z,101945.53
2023-05-21T12:56:10.869Z,101958.88
2023-05-21T12:58:40.975Z,101958.97
2023-05-21T13:01:09.756Z,101969.84
2023-05-21T13:03:39.754Z,101967.47
2023-05-21T13:06:10.962Z,101960.03
2023-05-21T13:08:39.592Z,101963.84
2023-05-21T13:11:08.354Z,101963.03
2023-05-21T13:13:36.706Z,101964.25
2023-05-21T13:16:07.225Z,101964.25
2023-05-21T13:18:35.584Z,101958.34
2023-05-21T13:21:03.912Z,101960.63
2023-05-21T13:23:32.389Z,101958.88
2023-05-21T13:26:00.930Z,101960.41
2023-05-21T13:28:29.445Z,101960.44
2023-05-21T13:30:57.923Z,101963.38
2023-05-21T13:33:27.720Z,101966.63
2023-05-21T13:35:56.046Z,101958.00
2023-05-21T13:38:24.370Z,101960.25
2023-05-21T13:40:52.748Z,101955.84
2023-05-21T13:43:24.675Z,101960.34
2023-05-21T13:45:55.577Z,101968.78
2023-05-21T13:48:23.977Z,101955.50
2023-05-21T13:50:53.849Z,101961.66
2023-05-21T13:53:23.709Z,101957.09
2023-05-21T13:55:52.289Z,101967.97
2023-05-21T13:58:21.039Z,101954.44
2023-05-21T14:00:49.540Z,101960.19
2023-05-21T14:03:18.765Z,101952.28
2023-05-21T14:05:48.733Z,101953.41
2023-05-21T14:08:20.796Z,101960.31
2023-05-21T14:10:51.419Z,101965.09
2023-05-21T14:13:20.313Z,101955.78
2023-05-21T14:15:49.207Z,101957.44
2023-05-21T14:18:17.653Z,101954.19
2023-05-21T14:20:45.996Z,101958.63
2023-05-21T14:23:14.588Z,101953.00
2023-05-21T14:25:44.594Z,101960.13
2023-05-21T14:28:16.250Z,101950.53
2023-05-21T14:30:44.992Z,101954.06
2023-05-21T14:33:13.551Z,101951.09
2023-05-21T14:35:44.252Z,101946.19
2023-05-21T14:38:12.540Z,101950.13
2023-05-21T14:40:41.162Z,101946.09
2023-05-21T14:43:11.045Z,101940.59
2023-05-21T14:45:39.977Z,101947.19
2023-05-21T14:48:09.479Z,101944.28
2023-05-21T14:50:38.456Z,101944.44
2023-05-21T14:53:07.264Z,101944.88
2023-05-21T14:55:37.228Z,101940.59
2023-05-21T14:58:06.587Z,101941.84
2023-05-21T15:00:37.435Z,101935.56
2023-05-21T15:03:06.406Z,101936.88
2023-05-21T15:05:36.257Z,101940.78
2023-05-21T15:08:06.194Z,101935.56
2023-05-21T15:10:35.132Z,101933.63
2023-05-21T15:13:04.011Z,101927.25
2023-05-21T15:15:32.533Z,101924.16
2023-05-21T15:18:02.271Z,101927.34
2023-05-21T15:20:30.834Z,101914.50
2023-05-21T15:25:32.629Z,101916.16
2023-05-21T15:28:01.119Z,101910.31
2023-05-21T15:30:29.883Z,101915.50
2023-05-21T15:32:58.962Z,101911.75
2023-05-21T15:35:31.367Z,101910.00
2023-05-21T15:38:00.021Z,101912.47
2023-05-21T15:40:31.550Z,101916.25
2023-05-21T15:43:00.050Z,101906.47
2023-05-21T15:45:28.255Z,101913.69
2023-05-21T15:47:56.566Z,101907.41
2023-05-21T15:50:24.969Z,101914.09
2023-05-21T15:52:54.923Z,101903.81
2023-05-21T15:55:23.319Z,101903.31
2023-05-21T15:57:51.547Z,101906.13
2023-05-21T16:00:19.992Z,101909.28
2023-05-21T16:02:48.593Z,101911.44
2023-05-21T16:05:17.017Z,101904.34
2023-05-21T16:07:46.239Z,101909.59
2023-05-21T16:10:16.040Z,101905.34
2023-05-21T16:12:44.703Z,101913.06
2023-05-21T16:15:13.320Z,101907.72
2023-05-21T16:17:41.765Z,101901.81
2023-05-21T16:20:10.867Z,101914.88
2023-05-21T16:22:40.507Z,101901.41
2023-05-21T16:25:11.119Z,101897.44
2023-05-21T16:27:43.725Z,101904.66
2023-05-21T16:30:14.230Z,101894.94
2023-05-21T16:32:42.522Z,101905.53
2023-05-21T16:35:10.881Z,101902.50
2023-05-21T16:37:39.560Z,101897.63
2023-05-21T16:40:09.321Z,101899.16
2023-05-21T16:42:38.705Z,101896.91
2023-05-21T16:45:10.959Z,101896.09
2023-05-21T16:47:39.329Z,101891.50
2023-05-21T16:50:09.338Z,101889.81
2023-05-21T16:52:37.693Z,101887.56
2023-05-21T16:55:06.992Z,101891.03
2023-05-21T16:57:35.908Z,101885.25
2023-05-21T17:00:05.254Z,101896.81
2023-05-21T17:02:35.465Z,101886.34
2023-05-21T17:05:04.185Z,101890.16
2023-05-21T17:07:32.774Z,101897.78
2023-05-21T17:10:01.345Z,101892.78
2023-05-21T17:12:29.632Z,101895.56
2023-05-21T17:14:58.155Z,101895.91
2023-05-21T17:17:26.848Z,101896.09
2023-05-21T17:19:56.869Z,101899.28
2023-05-21T17:22:25.283Z,101902.03
2023-05-21T17:24:54.111Z,101898.09
2023-05-21T17:27:23.083Z,101901.91
2023-05-21T17:29:51.556Z,101901.69
2023-05-21T17:32:21.154Z,101907.19
2023-05-21T17:34:49.826Z,101897.97
2023-05-21T17:37:19.660Z,101904.81
2023-05-21T17:39:48.438Z,101907.88
2023-05-21T17:42:18.377Z,101912.91
2023-05-21T17:44:46.946Z,101909.00
2023-05-21T17:47:15.734Z,101914.94
2023-05-21T17:49:44.009Z,101908.63
2023-05-21T17:52:12.473Z,101900.50
2023-05-21T17:54:42.172Z,101908.41
2023-05-21T17:57:10.667Z,101906.72
2023-05-21T17:59:41.496Z,101905.03
2023-05-21T18:02:10.408Z,101907.31
2023-05-21T18:04:38.882Z,101908.75
2023-05-21T18:07:07.384Z,101914.25
2023-05-21T18:09:35.852Z,101911.38
2023-05-21T18:12:06.918Z,101913.63
2023-05-21T18:14:35.154Z,101915.44
2023-05-21T18:17:03.558Z,101920.22
2023-05-21T18:19:32.039Z,101919.00
2023-05-21T18:22:00.360Z,101908.03
2023-05-21T18:24:28.460Z,101919.13
2023-05-21T18:26:56.712Z,101913.75
2023-05-21T18:29:26.452Z,101916.34
2023-05-21T18:31:55.135Z,101919.22
2023-05-21T18:34:23.348Z,101921.84
2023-05-21T18:36:54.608Z,101912.91
2023-05-21T18:39:24.863Z,101914.22
2023-05-21T18:42:01.503Z,101921.97
2023-05-21T18:44:35.252Z,101923.53
2023-05-21T18:47:03.771Z,101913.97
2023-05-21T18:49:35.378Z,101923.88
2023-05-21T18:52:03.875Z,101920.75
2023-05-21T18:54:32.339Z,101918.88
2023-05-21T18:57:01.000Z,101919.31
2023-05-21T18:59:31.301Z,101921.31
2023-05-21T19:02:00.977Z,101918.13
2023-05-21T19:04:29.762Z,101930.22
2023-05-21T19:06:58.007Z,101925.06
2023-05-21T19:09:26.470Z,101921.09
2023-05-21T19:11:55.580Z,101924.09
2023-05-21T19:14:24.175Z,101926.34
2023-05-21T19:16:52.747Z,101920.38
2023-05-21T19:19:23.208Z,101918.22
2023-05-21T19:21:52.905Z,101926.34
2023-05-21T19:24:21.709Z,101924.28
2023-05-21T19:26:50.153Z,101923.06
2023-05-21T19:29:18.641Z,101925.22
2023-05-21T19:31:47.117Z,101923.16
2023-05-21T19:34:15.516Z,101927.00
2023-05-21T19:36:52.800Z,101927.00
2023-05-21T19:39:21.917Z,101941.38
2023-05-21T19:41:51.736Z,101934.75
2023-05-21T19:44:20.141Z,101940.31
2023-05-21T19:46:50.001Z,101944.22
2023-05-21T19:49:20.067Z,101942.16
2023-05-21T19:51:52.051Z,101944.44
2023-05-21T19:54:20.521Z,101957.22
2023-05-21T19:56:49.311Z,101943.56
2023-05-21T19:59:17.786Z,101943.00
2023-05-21T20:01:46.501Z,101953.34
2023-05-21T20:04:15.201Z,101963.53
2023-05-21T20:06:43.545Z,101966.47
2023-05-21T20:09:13.877Z,101971.75
2023-05-21T20:11:43.101Z,101978.78
2023-05-21T20:14:11.478Z,101967.22
2023-05-21T20:16:39.706Z,101970.25
2023-05-21T20:19:10.776Z,101972.34
2023-05-21T20:21:38.929Z,101970.06
2023-05-21T20:24:08.699Z,101971.97
2023-05-21T20:26:39.907Z,101969.91
2023-05-21T20:29:08.459Z,101972.44
2023-05-21T20:31:36.953Z,101975.00
2023-05-21T20:34:09.052Z,101975.47
2023-05-21T20:36:37.890Z,101973.78
2023-05-21T20:39:06.426Z,101972.41
2023-05-21T20:41:36.315Z,101972.16
2023-05-21T20:44:06.656Z,101980.53
2023-05-21T20:46:38.246Z,101983.50
2023-05-21T20:49:07.521Z,101983.50
2023-05-21T20:51:35.895Z,101986.47
2023-05-21T20:54:04.274Z,101990.22
2023-05-21T20:56:42.118Z,101990.66
2023-05-21T20:59:13.157Z,101984.34
2023-05-21T21:01:41.756Z,101990.19
2023-05-21T21:04:10.481Z,101985.63
2023-05-21T21:06:40.550Z,101989.81
2023-05-21T21:09:09.602Z,101985.63
2023-05-21T21:11:38.170Z,101979.25
2023-05-21T21:14:07.300Z,101983.94
2023-05-21T21:16:36.937Z,101979.34
2023-05-21T21:19:05.352Z,101985.66
2023-05-21T21:21:33.735Z,101983.16
2023-05-21T21:24:02.064Z,101978.28
2023-05-21T21:26:30.538Z,101977.72
2023-05-21T21:28:59.678Z,101985.72
2023-05-21T21:31:28.055Z,101979.00
2023-05-21T21:33:57.965Z,101976.88
2023-05-21T21:36:26.397Z,101980.50
2023-05-21T21:38:54.827Z,101982.16
2023-05-21T21:41:23.069Z,101979.88
2023-05-21T21:43:51.999Z,101979.66
2023-05-21T21:46:20.148Z,101975.72
2023-05-21T21:48:48.538Z,101979.47
2023-05-21T21:51:18.490Z,101977.78
2023-05-21T21:53:46.672Z,101973.22
2023-05-21T21:56:15.018Z,101972.81
2023-05-21T21:58:43.648Z,101971.34
2023-05-21T22:01:12.138Z,101976.38
2023-05-21T22:03:41.177Z,101970.31
2023-05-21T22:06:09.557Z,101966.56
2023-05-21T22:08:39.102Z,101971.16
2023-05-21T22:11:07.290Z,101974.31
2023-05-21T22:13:35.500Z,101957.34
2023-05-21T22:16:03.720Z,101961.72
2023-05-21T22:18:41.042Z,101959.88
2023-05-21T22:21:10.846Z,101964.31
2023-05-21T22:23:42.349Z,101965.78
2023-05-21T22:26:11.088Z,101953.16
2023-05-21T22:28:39.383Z,101960.81
2023-05-21T22:31:08.968Z,101965.59
2023-05-21T22:33:37.764Z,101966.03
2023-05-21T22:36:06.808Z,101962.91
2023-05-21T22:38:34.958Z,101958.06
2023-05-21T22:41:04.682Z,101960.16
2023-05-21T22:43:34.735Z,101955.94
2023-05-21T22:46:05.125Z,101953.44
2023-05-21T22:48:34.563Z,101962.50
2023-05-21T22:51:05.958Z,101948.03
2023-05-21T22:53:35.643Z,101945.94
2023-05-21T22:56:05.658Z,101946.56
2023-05-21T22:58:34.129Z,101946.59
2023-05-21T23:01:02.402Z,101951.63
2023-05-21T23:03:31.121Z,101950.78
2023-05-21T23:05:59.485Z,101952.50
2023-05-21T23:08:27.782Z,101941.16
2023-05-21T23:10:56.219Z,101939.47
2023-05-21T23:13:26.078Z,101947.88
2023-05-21T23:15:54.434Z,101946.22
2023-05-21T23:18:22.669Z,101946.81
2023-05-21T23:20:51.418Z,101939.94
2023-05-21T23:23:19.788Z,101948.34
2023-05-21T23:25:48.245Z,101939.09
2023-05-21T23:28:16.536Z,101939.53
2023-05-21T23:30:46.572Z,101942.47
2023-05-21T23:33:15.185Z,101941.22
2023-05-21T23:35:46.345Z,101941.41
2023-05-21T23:38:14.728Z,101940.56
2023-05-21T23:40:43.498Z,101936.59
2023-05-21T23:43:12.828Z,101940.41
2023-05-21T23:45:41.540Z,101934.09
2023-05-21T23:48:11.991Z,101928.44
2023-05-21T23:50:40.426Z,101929.88
2023-05-21T23:53:08.885Z,101925.66
2023-05-21T23:55:37.282Z,101925.28
2023-05-21T23:58:05.443Z,101929.03
